createdAt,value
2018-05-29T00:00:28.854Z,99.90
2018-05-29T00:02:57.007Z,99.90
2018-05-29T00:05:25.189Z,99.90
2018-05-29T00:07:53.350Z,99.90
2018-05-29T00:10:21.531Z,99.90
2018-05-29T00:12:49.689Z,99.90
2018-05-29T00:15:17.875Z,99.90
2018-05-29T00:17:46.025Z,99.90
2018-05-29T00:20:14.199Z,99.90
2018-05-29T00:22:42.364Z,99.90
2018-05-29T00:25:10.548Z,99.90
2018-05-29T00:27:38.699Z,99.90
2018-05-29T00:30:06.880Z,99.90
2018-05-29T00:32:35.041Z,99.90
2018-05-29T00:35:03.988Z,99.90
2018-05-29T00:37:32.141Z,99.90
2018-05-29T00:40:00.328Z,99.90
2018-05-29T00:42:28.483Z,99.90
2018-05-29T00:44:56.680Z,99.90
2018-05-29T00:47:24.836Z,99.90
2018-05-29T00:49:53.021Z,99.90
2018-05-29T00:52:21.176Z,99.90
2018-05-29T00:55:01.148Z,99.90
2018-05-29T00:57:29.304Z,99.90
2018-05-29T00:59:57.497Z,99.90
2018-05-29T01:02:25.656Z,99.90
2018-05-29T01:04:53.808Z,99.90
2018-05-29T01:07:22.753Z,99.90
2018-05-29T01:09:50.908Z,99.90
2018-05-29T01:12:19.088Z,99.90
2018-05-29T01:14:47.244Z,99.90
2018-05-29T01:17:15.424Z,99.90
2018-05-29T01:19:43.589Z,99.90
2018-05-29T01:22:11.770Z,99.90
2018-05-29T01:24:39.931Z,99.90
2018-05-29T01:27:08.107Z,99.90
2018-05-29T01:29:36.258Z,99.90
2018-05-29T01:32:04.437Z,99.90
2018-05-29T01:34:33.364Z,99.90
2018-05-29T01:37:01.548Z,99.90
2018-05-29T01:39:29.699Z,99.90
2018-05-29T01:41:57.882Z,99.90
2018-05-29T01:44:26.040Z,99.90
2018-05-29T01:46:54.211Z,99.90
2018-05-29T01:49:22.369Z,99.90
2018-05-29T01:51:50.555Z,99.90
2018-05-29T01:54:18.712Z,99.90
2018-05-29T01:56:46.901Z,99.90
2018-05-29T01:59:15.823Z,99.90
2018-05-29T02:01:44.003Z,99.90
2018-05-29T02:04:12.160Z,99.90
2018-05-29T02:06:40.348Z,99.90
2018-05-29T02:09:08.512Z,99.90
2018-05-29T02:11:36.695Z,99.90
2018-05-29T02:14:04.856Z,99.90
2018-05-29T02:16:33.039Z,99.90
2018-05-29T02:19:01.197Z,99.90
2018-05-29T02:21:29.381Z,99.90
2018-05-29T02:23:57.539Z,99.90
2018-05-29T02:26:25.732Z,99.90
2018-05-29T02:28:53.888Z,99.90
2018-05-29T02:31:22.074Z,99.90
2018-05-29T02:33:50.232Z,99.90
2018-05-29T02:36:18.418Z,99.90
2018-05-29T02:38:46.579Z,99.90
2018-05-29T02:41:14.759Z,99.90
2018-05-29T02:43:42.915Z,99.90
2018-05-29T02:46:11.098Z,99.90
2018-05-29T02:48:39.257Z,99.90
2018-05-29T02:51:08.210Z,99.90
2018-05-29T02:53:36.368Z,99.90
2018-05-29T02:56:04.548Z,99.90
2018-05-29T02:58:32.704Z,99.90
2018-05-29T03:01:00.867Z,99.90
2018-05-29T03:03:29.048Z,99.90
2018-05-29T03:05:57.207Z,99.90
2018-05-29T03:08:25.389Z,99.90
2018-05-29T03:10:53.544Z,99.90
2018-05-29T03:13:21.729Z,99.90
2018-05-29T03:15:49.881Z,99.90
2018-05-29T03:18:18.832Z,99.90
2018-05-29T03:20:46.984Z,99.90
2018-05-29T03:23:15.173Z,99.90
2018-05-29T03:25:43.332Z,99.90
2018-05-29T03:28:11.507Z,99.90
2018-05-29T03:30:39.674Z,99.90
2018-05-29T03:33:07.859Z,99.90
2018-05-29T03:35:36.025Z,99.90
2018-05-29T03:38:04.207Z,99.90
2018-05-29T03:40:32.366Z,99.90
2018-05-29T03:43:00.550Z,99.90
2018-05-29T03:45:28.713Z,99.90
2018-05-29T03:47:56.899Z,99.90
2018-05-29T03:50:25.057Z,99.90
2018-05-29T03:52:53.240Z,99.90
2018-05-29T03:55:21.401Z,99.90
2018-05-29T03:57:49.591Z,99.90
2018-05-29T04:00:17.763Z,99.90
2018-05-29T04:02:45.947Z,99.90
2018-05-29T04:05:14.110Z,99.90
2018-05-29T04:07:43.149Z,99.90
2018-05-29T04:10:11.304Z,99.90
2018-05-29T04:12:39.481Z,99.90
2018-05-29T04:15:07.636Z,99.90
2018-05-29T04:17:35.844Z,99.90
2018-05-29T04:20:04.012Z,99.90
2018-05-29T04:22:32.205Z,99.90
2018-05-29T04:25:00.368Z,99.90
2018-05-29T04:27:28.552Z,99.90
2018-05-29T04:29:56.712Z,99.90
2018-05-29T04:32:24.901Z,99.90
2018-05-29T04:34:53.060Z,99.90
2018-05-29T04:37:21.239Z,99.90
2018-05-29T04:39:49.401Z,99.90
2018-05-29T04:42:17.585Z,99.90
2018-05-29T04:44:45.748Z,99.90
2018-05-29T04:47:13.935Z,99.90
2018-05-29T04:49:42.140Z,99.90
2018-05-29T04:52:10.316Z,99.90
2018-05-29T04:54:38.472Z,99.90
2018-05-29T04:57:06.658Z,99.90
2018-05-29T04:59:35.588Z,99.90
2018-05-29T05:02:03.742Z,99.90
2018-05-29T05:04:31.924Z,99.90
2018-05-29T05:07:00.072Z,99.90
2018-05-29T05:09:28.252Z,99.90
2018-05-29T05:11:57.176Z,99.90
2018-05-29T05:14:25.356Z,99.90
2018-05-29T05:16:53.508Z,99.90
2018-05-29T05:19:21.707Z,99.90
2018-05-29T05:21:49.863Z,99.90
2018-05-29T05:24:18.048Z,99.90
2018-05-29T05:26:46.202Z,99.90
2018-05-29T05:29:14.381Z,99.90
2018-05-29T05:31:42.536Z,99.90
2018-05-29T05:34:10.713Z,99.90
2018-05-29T05:36:39.633Z,99.90
2018-05-29T05:39:07.813Z,99.90
2018-05-29T05:41:35.964Z,99.90
2018-05-29T05:44:04.145Z,99.90
2018-05-29T05:46:32.297Z,99.90
2018-05-29T05:49:01.237Z,99.90
2018-05-29T05:51:29.393Z,99.90
2018-05-29T05:53:57.592Z,99.90
2018-05-29T05:56:25.753Z,99.90
2018-05-29T05:58:53.924Z,99.90
2018-05-29T06:01:22.084Z,99.90
2018-05-29T06:03:50.278Z,99.90
2018-05-29T06:06:18.428Z,99.90
2018-05-29T06:08:46.604Z,99.90
2018-05-29T06:11:14.766Z,99.90
2018-05-29T06:13:42.949Z,99.90
2018-05-29T06:16:11.156Z,99.90
2018-05-29T06:18:39.335Z,99.90
2018-05-29T06:21:07.497Z,99.90
2018-05-29T06:23:35.672Z,99.90
2018-05-29T06:26:03.823Z,99.90
2018-05-29T06:28:32.010Z,99.90
2018-05-29T06:31:00.174Z,99.90
2018-05-29T06:33:28.352Z,99.90
2018-05-29T06:35:56.505Z,99.90
2018-05-29T06:38:24.724Z,99.90
2018-05-29T06:40:52.880Z,99.90
2018-05-29T06:43:21.120Z,99.90
2018-05-29T06:45:50.080Z,99.70
2018-05-29T06:48:18.264Z,99.70
2018-05-29T06:50:46.413Z,98.60
2018-05-29T06:53:14.596Z,99.60
2018-05-29T06:55:42.756Z,99.20
2018-05-29T06:58:11.415Z,98.70
2018-05-29T07:00:39.588Z,98.30
2018-05-29T07:03:07.761Z,97.90
2018-05-29T07:05:36.068Z,98.10
2018-05-29T07:08:04.272Z,98.00
2018-05-29T07:10:32.477Z,97.30
2018-05-29T07:13:00.685Z,97.30
2018-05-29T07:15:29.222Z,96.90
2018-05-29T07:17:57.442Z,96.50
2018-05-29T07:20:25.682Z,95.70
2018-05-29T07:22:54.640Z,95.40
2018-05-29T07:25:22.887Z,95.40
2018-05-29T07:27:51.062Z,95.30
2018-05-29T07:30:19.395Z,96.20
2018-05-29T07:32:48.367Z,95.50
2018-05-29T07:35:16.946Z,95.50
2018-05-29T07:37:45.154Z,95.30
2018-05-29T07:40:13.337Z,94.30
2018-05-29T07:42:41.540Z,94.00
2018-05-29T07:45:09.750Z,93.10
2018-05-29T07:47:37.942Z,93.00
2018-05-29T07:50:06.169Z,93.80
2018-05-29T07:52:34.378Z,92.60
2018-05-29T07:55:02.586Z,92.00
2018-05-29T07:57:30.740Z,92.80
2018-05-29T07:59:58.909Z,91.80
2018-05-29T08:02:27.074Z,91.70
2018-05-29T08:04:55.256Z,91.80
2018-05-29T08:07:23.409Z,91.80
2018-05-29T08:09:51.998Z,92.40
2018-05-29T08:12:20.552Z,91.80
2018-05-29T08:14:48.825Z,92.10
2018-05-29T08:17:16.985Z,92.50
2018-05-29T08:19:45.159Z,92.80
2018-05-29T08:22:13.309Z,91.00
2018-05-29T08:24:41.671Z,92.10
2018-05-29T08:27:10.607Z,90.50
2018-05-29T08:29:38.804Z,90.50
2018-05-29T08:32:06.953Z,91.80
2018-05-29T08:34:35.128Z,91.20
2018-05-29T08:37:03.282Z,90.90
2018-05-29T08:39:31.510Z,91.30
2018-05-29T08:41:59.641Z,88.50
2018-05-29T08:44:27.831Z,87.50
2018-05-29T08:46:55.984Z,87.40
2018-05-29T08:49:24.173Z,88.10
2018-05-29T08:51:52.348Z,89.30
2018-05-29T08:54:20.523Z,89.20
2018-05-29T08:56:48.719Z,85.20
2018-05-29T08:59:16.875Z,86.90
2018-05-29T09:01:45.024Z,85.20
2018-05-29T09:04:13.499Z,86.20
2018-05-29T09:06:41.678Z,84.00
2018-05-29T09:09:10.245Z,83.70
2018-05-29T09:11:39.607Z,84.60
2018-05-29T09:14:08.091Z,82.60
2018-05-29T09:16:36.629Z,83.30
2018-05-29T09:19:05.216Z,85.00
2018-05-29T09:21:33.444Z,81.60
2018-05-29T09:24:01.699Z,77.50
2018-05-29T09:26:29.883Z,75.30
2018-05-29T09:28:58.060Z,78.60
2018-05-29T09:31:26.288Z,76.30
2018-05-29T09:33:54.478Z,75.40
2018-05-29T09:36:22.652Z,75.30
2018-05-29T09:38:50.803Z,71.50
2018-05-29T09:41:18.981Z,71.70
2018-05-29T09:43:47.191Z,69.90
2018-05-29T09:46:15.382Z,69.30
2018-05-29T09:48:43.532Z,70.30
2018-05-29T09:51:11.714Z,70.80
2018-05-29T09:53:39.932Z,67.20
2018-05-29T09:56:08.227Z,68.10
2018-05-29T09:58:36.400Z,69.30
2018-05-29T10:01:04.591Z,67.10
2018-05-29T10:03:32.751Z,66.30
2018-05-29T10:06:00.934Z,67.90
2018-05-29T10:08:29.090Z,64.30
2018-05-29T10:10:57.272Z,64.30
2018-05-29T10:13:25.443Z,64.60
2018-05-29T10:15:53.617Z,66.40
2018-05-29T10:18:21.789Z,62.00
2018-05-29T10:20:50.723Z,65.30
2018-05-29T10:23:18.918Z,65.30
2018-05-29T10:25:47.069Z,65.40
2018-05-29T10:28:15.229Z,60.70
2018-05-29T10:30:43.417Z,60.70
2018-05-29T10:33:11.574Z,63.30
2018-05-29T10:35:39.747Z,63.00
2018-05-29T10:38:07.916Z,63.80
2018-05-29T10:40:36.091Z,60.40
2018-05-29T10:43:04.251Z,60.60
2018-05-29T10:45:32.425Z,60.60
2018-05-29T10:48:00.571Z,61.90
2018-05-29T10:50:28.749Z,60.90
2018-05-29T10:53:01.471Z,62.80
2018-05-29T10:55:29.651Z,62.60
2018-05-29T10:57:57.800Z,59.10
2018-05-29T11:00:25.972Z,60.90
2018-05-29T11:02:54.126Z,59.60
2018-05-29T11:05:23.063Z,59.70
2018-05-29T11:07:51.211Z,59.70
2018-05-29T11:10:20.159Z,58.90
2018-05-29T11:12:48.313Z,58.80
2018-05-29T11:15:16.460Z,57.70
2018-05-29T11:17:44.636Z,57.90
2018-05-29T11:20:12.796Z,57.50
2018-05-29T11:22:40.972Z,56.30
2018-05-29T11:25:09.120Z,58.80
2018-05-29T11:27:37.312Z,59.50
2018-05-29T11:30:06.229Z,56.70
2018-05-29T11:32:34.404Z,56.70
2018-05-29T11:35:02.560Z,57.30
2018-05-29T11:37:30.729Z,56.70
2018-05-29T11:39:58.881Z,57.30
2018-05-29T11:42:27.110Z,55.20
2018-05-29T11:44:55.221Z,56.60
2018-05-29T11:47:23.406Z,54.70
2018-05-29T11:49:52.319Z,56.50
2018-05-29T11:52:20.500Z,56.90
2018-05-29T11:54:48.653Z,54.00
2018-05-29T11:57:16.833Z,51.70
2018-05-29T11:59:44.980Z,52.40
2018-05-29T12:02:13.168Z,52.50
2018-05-29T12:04:41.338Z,52.50
2018-05-29T12:07:09.548Z,52.20
2018-05-29T12:09:37.714Z,54.10
2018-05-29T12:12:17.602Z,53.30
2018-05-29T12:14:45.751Z,54.70
2018-05-29T12:17:13.927Z,53.20
2018-05-29T12:19:42.094Z,55.40
2018-05-29T12:22:10.268Z,54.70
2018-05-29T12:24:38.436Z,52.00
2018-05-29T12:27:06.644Z,50.40
2018-05-29T12:29:34.795Z,52.80
2018-05-29T12:32:02.985Z,53.40
2018-05-29T12:34:31.132Z,52.70
2018-05-29T12:36:59.320Z,51.90
2018-05-29T12:39:27.471Z,52.60
2018-05-29T12:41:55.642Z,48.80
2018-05-29T12:44:23.814Z,51.70
2018-05-29T12:46:52.752Z,51.00
2018-05-29T12:49:20.935Z,51.00
2018-05-29T12:51:49.140Z,50.20
2018-05-29T12:54:17.296Z,51.20
2018-05-29T12:56:45.480Z,52.20
2018-05-29T12:59:13.684Z,52.10
2018-05-29T13:01:41.842Z,52.70
2018-05-29T13:04:10.756Z,51.20
2018-05-29T13:06:38.945Z,51.10
2018-05-29T13:09:07.100Z,50.40
2018-05-29T13:11:35.290Z,49.20
2018-05-29T13:14:03.448Z,49.10
2018-05-29T13:16:31.627Z,48.40
2018-05-29T13:18:59.780Z,47.70
2018-05-29T13:21:27.982Z,48.00
2018-05-29T13:23:56.144Z,48.20
2018-05-29T13:26:24.311Z,48.00
2018-05-29T13:28:52.496Z,49.40
2018-05-29T13:31:20.647Z,49.60
2018-05-29T13:33:48.839Z,50.80
2018-05-29T13:36:17.013Z,51.10
2018-05-29T13:38:45.196Z,51.50
2018-05-29T13:41:13.357Z,52.10
2018-05-29T13:43:41.532Z,52.30
2018-05-29T13:46:09.704Z,51.30
2018-05-29T13:48:37.917Z,51.80
2018-05-29T13:51:06.172Z,50.80
2018-05-29T13:53:34.353Z,49.30
2018-05-29T13:56:02.515Z,47.90
2018-05-29T13:58:30.711Z,46.50
2018-05-29T14:00:58.884Z,48.50
2018-05-29T14:03:27.115Z,48.80
2018-05-29T14:05:55.243Z,49.20
2018-05-29T14:08:23.429Z,48.70
2018-05-29T14:10:51.584Z,48.20
2018-05-29T14:13:19.799Z,48.80
2018-05-29T14:15:47.985Z,48.10
2018-05-29T14:18:16.923Z,46.00
2018-05-29T14:20:45.084Z,45.90
2018-05-29T14:23:13.263Z,47.10
2018-05-29T14:25:41.417Z,46.90
2018-05-29T14:28:09.620Z,47.70
2018-05-29T14:30:37.838Z,46.60
2018-05-29T14:33:06.011Z,47.80
2018-05-29T14:35:34.938Z,48.30
2018-05-29T14:38:03.161Z,48.20
2018-05-29T14:40:31.331Z,47.50
2018-05-29T14:42:59.520Z,48.00
2018-05-29T14:45:27.680Z,47.60
2018-05-29T14:47:55.872Z,47.00
2018-05-29T14:50:24.024Z,47.50
2018-05-29T14:52:52.222Z,47.20
2018-05-29T14:55:20.377Z,48.10
2018-05-29T14:57:48.560Z,47.60
2018-05-29T15:00:16.709Z,47.70
2018-05-29T15:02:44.910Z,48.30
2018-05-29T15:05:13.080Z,48.00
2018-05-29T15:07:41.260Z,47.70
2018-05-29T15:10:09.411Z,47.80
2018-05-29T15:12:37.588Z,48.50
2018-05-29T15:15:05.737Z,47.20
2018-05-29T15:17:33.907Z,47.20
2018-05-29T15:20:02.056Z,47.50
2018-05-29T15:22:30.235Z,48.70
2018-05-29T15:24:58.418Z,47.30
2018-05-29T15:27:26.589Z,46.20
2018-05-29T15:29:54.809Z,45.20
2018-05-29T15:32:22.964Z,46.30
2018-05-29T15:34:51.135Z,47.10
2018-05-29T15:37:19.314Z,46.80
2018-05-29T15:39:47.492Z,46.20
2018-05-29T15:42:15.676Z,46.90
2018-05-29T15:44:43.879Z,46.60
2018-05-29T15:47:12.048Z,45.40
2018-05-29T15:49:40.269Z,45.60
2018-05-29T15:52:08.447Z,46.50
2018-05-29T15:54:36.628Z,46.90
2018-05-29T15:57:04.799Z,45.30
2018-05-29T15:59:32.983Z,45.00
2018-05-29T16:02:01.150Z,44.20
2018-05-29T16:04:29.335Z,45.00
2018-05-29T16:06:57.488Z,44.30
2018-05-29T16:09:25.659Z,44.10
2018-05-29T16:11:53.812Z,43.90
2018-05-29T16:14:22.028Z,42.70
2018-05-29T16:16:50.172Z,43.70
2018-05-29T16:19:18.370Z,44.70
2018-05-29T16:21:46.512Z,43.40
2018-05-29T16:24:14.692Z,43.10
2018-05-29T16:26:42.919Z,42.90
2018-05-29T16:29:11.089Z,44.10
2018-05-29T16:31:39.268Z,44.40
2018-05-29T16:34:07.447Z,45.10
2018-05-29T16:36:35.629Z,44.20
2018-05-29T16:39:03.785Z,45.10
2018-05-29T16:41:31.968Z,44.90
2018-05-29T16:44:00.122Z,46.00
2018-05-29T16:46:28.304Z,46.60
2018-05-29T16:48:56.453Z,50.90
2018-05-29T16:51:24.632Z,52.60
2018-05-29T16:53:52.786Z,53.40
2018-05-29T16:56:20.957Z,54.50
2018-05-29T16:58:49.109Z,54.70
2018-05-29T17:01:17.295Z,55.30
2018-05-29T17:03:45.445Z,55.40
2018-05-29T17:06:14.391Z,55.70
2018-05-29T17:08:42.535Z,55.60
2018-05-29T17:11:10.712Z,55.90
2018-05-29T17:13:38.861Z,56.80
2018-05-29T17:16:07.045Z,57.20
2018-05-29T17:18:35.960Z,57.80
2018-05-29T17:21:04.153Z,57.70
2018-05-29T17:23:32.308Z,56.60
2018-05-29T17:26:00.482Z,56.80
2018-05-29T17:28:28.660Z,57.30
2018-05-29T17:30:56.816Z,57.60
2018-05-29T17:33:25.009Z,58.00
2018-05-29T17:35:53.163Z,58.20
2018-05-29T17:38:21.356Z,58.60
2018-05-29T17:40:49.524Z,58.90
2018-05-29T17:43:17.699Z,59.60
2018-05-29T17:45:45.877Z,59.90
2018-05-29T17:48:14.067Z,59.70
2018-05-29T17:50:42.227Z,60.00
2018-05-29T17:53:10.403Z,60.30
2018-05-29T17:55:38.561Z,60.90
2018-05-29T17:58:06.751Z,61.90
2018-05-29T18:00:34.909Z,62.30
2018-05-29T18:03:03.132Z,62.80
2018-05-29T18:05:31.380Z,62.20
2018-05-29T18:07:59.766Z,62.00
2018-05-29T18:10:28.029Z,62.30
2018-05-29T18:12:56.345Z,61.40
2018-05-29T18:15:25.633Z,62.40
2018-05-29T18:17:53.940Z,63.70
2018-05-29T18:20:22.255Z,62.90
2018-05-29T18:22:50.627Z,63.50
2018-05-29T18:25:18.845Z,63.90
2018-05-29T18:27:47.042Z,65.20
2018-05-29T18:30:15.247Z,66.00
2018-05-29T18:32:43.435Z,67.40
2018-05-29T18:35:11.592Z,68.10
2018-05-29T18:37:39.813Z,69.10
2018-05-29T18:40:07.980Z,69.60
2018-05-29T18:42:36.166Z,69.60
2018-05-29T18:45:04.326Z,68.80
2018-05-29T18:47:32.616Z,68.80
2018-05-29T18:50:01.580Z,69.90
2018-05-29T18:52:29.757Z,69.50
2018-05-29T18:54:57.918Z,70.00
2018-05-29T18:57:26.133Z,70.40
2018-05-29T18:59:54.311Z,70.80
2018-05-29T19:02:22.550Z,71.40
2018-05-29T19:04:50.799Z,71.20
2018-05-29T19:07:19.021Z,71.80
2018-05-29T19:09:47.316Z,71.70
2018-05-29T19:12:15.533Z,71.90
2018-05-29T19:14:43.844Z,72.30
2018-05-29T19:17:12.074Z,72.80
2018-05-29T19:19:40.222Z,73.20
2018-05-29T19:22:08.386Z,74.40
2018-05-29T19:24:36.557Z,74.00
2018-05-29T19:27:04.760Z,74.70
2018-05-29T19:29:32.920Z,75.10
2018-05-29T19:32:01.863Z,77.00
2018-05-29T19:34:30.051Z,77.00
2018-05-29T19:36:58.225Z,77.70
2018-05-29T19:39:26.422Z,78.60
2018-05-29T19:41:54.604Z,79.70
2018-05-29T19:44:23.595Z,80.50
2018-05-29T19:46:52.543Z,81.20
2018-05-29T19:49:20.701Z,81.20
2018-05-29T19:51:48.876Z,81.90
2018-05-29T19:54:17.040Z,82.40
2018-05-29T19:56:45.215Z,83.20
2018-05-29T19:59:13.376Z,83.40
2018-05-29T20:01:41.557Z,84.20
2018-05-29T20:04:09.699Z,84.40
2018-05-29T20:06:38.669Z,85.70
2018-05-29T20:09:06.853Z,85.20
2018-05-29T20:11:35.045Z,86.10
2018-05-29T20:14:03.976Z,88.10
2018-05-29T20:16:32.152Z,88.10
2018-05-29T20:19:00.308Z,88.70
2018-05-29T20:21:28.492Z,89.50
2018-05-29T20:23:56.656Z,89.80
2018-05-29T20:26:24.838Z,90.30
2018-05-29T20:28:53.080Z,90.70
2018-05-29T20:31:21.288Z,91.00
2018-05-29T20:33:49.459Z,91.50
2018-05-29T20:36:17.724Z,92.00
2018-05-29T20:38:45.962Z,92.20
2018-05-29T20:41:14.273Z,92.60
2018-05-29T20:43:42.430Z,92.80
2018-05-29T20:46:10.618Z,93.30
2018-05-29T20:48:38.800Z,93.50
2018-05-29T20:51:06.984Z,93.70
2018-05-29T20:53:35.148Z,94.00
2018-05-29T20:56:03.381Z,94.60
2018-05-29T20:58:31.541Z,94.80
2018-05-29T21:00:59.747Z,95.50
2018-05-29T21:03:28.692Z,95.50
2018-05-29T21:05:56.878Z,95.50
2018-05-29T21:08:25.036Z,95.60
2018-05-29T21:10:53.263Z,95.90
2018-05-29T21:13:21.430Z,96.00
2018-05-29T21:15:49.612Z,95.90
2018-05-29T21:18:18.537Z,95.80
2018-05-29T21:20:46.719Z,95.80
2018-05-29T21:23:14.884Z,95.90
2018-05-29T21:25:43.093Z,96.00
2018-05-29T21:28:11.256Z,96.00
2018-05-29T21:30:39.411Z,96.10
2018-05-29T21:33:07.596Z,96.10
2018-05-29T21:35:35.759Z,96.40
2018-05-29T21:38:03.944Z,96.50
2018-05-29T21:40:32.109Z,96.50
2018-05-29T21:43:00.296Z,96.60
2018-05-29T21:45:28.463Z,96.50
2018-05-29T21:47:56.673Z,96.60
2018-05-29T21:50:24.841Z,97.00
2018-05-29T21:52:53.024Z,96.80
2018-05-29T21:55:21.175Z,97.10
2018-05-29T21:57:49.361Z,97.50
2018-05-29T22:00:17.524Z,97.70
2018-05-29T22:02:45.707Z,98.00
2018-05-29T22:05:13.864Z,98.00
2018-05-29T22:07:42.045Z,98.40
2018-05-29T22:10:10.199Z,98.60
2018-05-29T22:12:38.384Z,98.70
2018-05-29T22:15:06.544Z,98.90
2018-05-29T22:17:34.729Z,99.00
2018-05-29T22:20:02.894Z,99.00
2018-05-29T22:22:31.077Z,99.10
2018-05-29T22:24:59.232Z,99.00
2018-05-29T22:27:27.415Z,98.90
2018-05-29T22:29:55.597Z,99.10
2018-05-29T22:32:23.775Z,99.40
2018-05-29T22:34:51.936Z,99.50
2018-05-29T22:37:20.111Z,99.80
2018-05-29T22:39:48.283Z,99.90
2018-05-29T22:42:16.465Z,99.90
2018-05-29T22:44:44.625Z,99.90
2018-05-29T22:47:12.800Z,99.90
2018-05-29T22:49:40.959Z,99.90
2018-05-29T22:52:09.136Z,99.90
2018-05-29T22:54:37.293Z,99.90
2018-05-29T22:57:05.480Z,99.90
2018-05-29T22:59:33.635Z,99.90
2018-05-29T23:02:01.828Z,99.90
2018-05-29T23:04:29.990Z,99.90
2018-05-29T23:06:58.940Z,99.90
2018-05-29T23:09:27.091Z,99.90
2018-05-29T23:11:55.444Z,99.90
2018-05-29T23:14:23.591Z,99.90
2018-05-29T23:16:51.773Z,99.90
2018-05-29T23:19:19.929Z,99.90
2018-05-29T23:21:48.104Z,99.90
2018-05-29T23:24:16.263Z,99.90
2018-05-29T23:26:44.415Z,99.90
2018-05-29T23:29:12.595Z,99.90
2018-05-29T23:31:40.751Z,99.90
2018-05-29T23:34:08.927Z,99.90
2018-05-29T23:36:37.085Z,99.90
2018-05-29T23:39:06.084Z,99.90
2018-05-29T23:41:34.239Z,99.90
2018-05-29T23:44:02.416Z,99.90
2018-05-29T23:46:30.576Z,99.90
2018-05-29T23:48:58.765Z,99.90
2018-05-29T23:51:26.916Z,99.90
2018-05-29T23:53:55.092Z,99.90
2018-05-29T23:56:24.012Z,99.90
2018-05-29T23:58:52.188Z,99.90
